Time,TemperatureF,DewpointF,PressureIn,WindDirection,WindDirectionDegrees,WindSpeedMPH,WindSpeedGustMPH,Humidity,HourlyPrecipIn,Conditions,Clouds,dailyrainin,SoftwareType,DateUTC
2013-01-27 00:00:00,16.2,14.5,30.52,NW,321,0.0,2.0,93,0.00,,,0.00,meteohub,2013-01-27 05:00:00,
2013-01-27 00:01:00,16.2,14.5,30.52,NW,321,0.0,2.0,93,0.00,,,0.00,meteohub,2013-01-27 05:01:00,
2013-01-27 00:02:00,16.2,14.5,30.52,NW,321,1.0,2.0,93,0.00,,,0.00,meteohub,2013-01-27 05:02:00,
2013-01-27 00:07:00,16.5,14.9,30.52,NW,321,1.0,3.0,93,0.00,,,0.00,meteohub,2013-01-27 05:07:00,
2013-01-27 00:08:00,16.5,14.9,30.52,NW,321,0.0,3.0,93,0.00,,,0.00,meteohub,2013-01-27 05:08:00,
2013-01-27 00:13:00,16.9,14.9,30.52,NW,321,1.0,3.0,92,0.00,,,0.00,meteohub,2013-01-27 05:13:00,
2013-01-27 00:18:00,17.1,15.1,30.52,NW,321,1.0,3.0,92,0.00,,,0.00,meteohub,2013-01-27 05:18:00,
2013-01-27 00:23:00,17.2,15.3,30.52,NW,321,1.0,3.0,92,0.00,,,0.00,meteohub,2013-01-27 05:23:00,
2013-01-27 00:28:00,17.2,15.3,30.52,NW,321,0.0,3.0,92,0.00,,,0.00,meteohub,2013-01-27 05:28:00,
2013-01-27 00:34:00,17.4,15.4,30.52,NW,320,1.0,2.0,92,0.00,,,0.00,meteohub,2013-01-27 05:34:00,
2013-01-27 00:39:00,17.8,15.6,30.52,NW,321,2.0,3.0,91,0.00,,,0.00,meteohub,2013-01-27 05:39:00,
2013-01-27 00:44:00,18.0,15.8,30.52,NW,321,2.0,3.0,91,0.00,,,0.00,meteohub,2013-01-27 05:44:00,
2013-01-27 00:49:00,18.0,15.8,30.52,NW,321,0.0,3.0,91,0.00,,,0.00,meteohub,2013-01-27 05:49:00,
2013-01-27 00:54:00,17.8,15.6,30.52,NW,321,1.0,3.0,91,0.00,,,0.00,meteohub,2013-01-27 05:54:00,
2013-01-27 00:59:00,17.8,15.3,30.52,NW,320,2.0,2.0,90,0.00,,,0.00,meteohub,2013-01-27 05:59:00,
2013-01-27 01:04:00,17.8,15.3,30.52,NW,320,1.0,3.0,90,0.00,,,0.00,meteohub,2013-01-27 06:04:00,
2013-01-27 01:09:00,17.4,15.1,30.53,NW,320,1.0,3.0,90,0.00,,,0.00,meteohub,2013-01-27 06:09:00,
2013-01-27 01:14:00,17.4,15.1,30.53,NW,320,1.0,3.0,90,0.00,,,0.00,meteohub,2013-01-27 06:14:00,
2013-01-27 01:19:00,17.4,15.1,30.53,NW,320,1.0,3.0,90,0.00,,,0.00,meteohub,2013-01-27 06:19:00,
2013-01-27 01:24:00,17.2,14.9,30.53,NW,320,0.0,3.0,90,0.00,,,0.00,meteohub,2013-01-27 06:24:00,
2013-01-27 01:29:00,17.1,14.7,30.53,NW,320,1.0,3.0,90,0.00,,,0.00,meteohub,2013-01-27 06:29:00,
2013-01-27 01:35:00,16.9,14.5,30.53,NW,320,1.0,2.0,90,0.00,,,0.00,meteohub,2013-01-27 06:35:00,
2013-01-27 01:40:00,16.9,14.5,30.53,NW,320,2.0,3.0,90,0.00,,,0.00,meteohub,2013-01-27 06:40:00,
2013-01-27 01:45:00,16.7,14.4,30.53,NW,320,1.0,3.0,90,0.00,,,0.00,meteohub,2013-01-27 06:45:00,
2013-01-27 01:50:00,16.5,14.2,30.54,NW,320,1.0,2.0,90,0.00,,,0.00,meteohub,2013-01-27 06:50:00,
2013-01-27 01:55:00,16.5,14.2,30.54,NW,320,2.0,2.0,90,0.00,,,0.00,meteohub,2013-01-27 06:55:00,
2013-01-27 02:00:00,16.3,14.0,30.54,NW,320,1.0,2.0,90,0.00,,,0.00,meteohub,2013-01-27 07:00:00,
2013-01-27 02:05:00,16.2,13.8,30.54,NW,320,1.0,2.0,90,0.00,,,0.00,meteohub,2013-01-27 07:05:00,
2013-01-27 02:13:00,16.0,13.3,30.55,NW,320,1.0,2.0,89,0.00,,,0.00,meteohub,2013-01-27 07:13:00,
2013-01-27 02:18:00,15.6,12.9,30.55,NW,320,0.0,2.0,89,0.00,,,0.00,meteohub,2013-01-27 07:18:00,
2013-01-27 02:23:00,15.4,12.7,30.55,NW,320,1.0,2.0,89,0.00,,,0.00,meteohub,2013-01-27 07:23:00,
2013-01-27 02:28:00,15.3,12.6,30.56,NW,320,2.0,2.0,89,0.00,,,0.00,meteohub,2013-01-27 07:28:00,
2013-01-27 02:33:00,14.9,12.2,30.56,NW,320,2.0,2.0,89,0.00,,,0.00,meteohub,2013-01-27 07:33:00,
2013-01-27 02:38:00,14.7,11.8,30.56,NW,315,2.0,3.0,88,0.00,,,0.00,meteohub,2013-01-27 07:38:00,
2013-01-27 02:43:00,14.4,11.7,30.56,NW,315,1.0,3.0,89,0.00,,,0.00,meteohub,2013-01-27 07:43:00,
2013-01-27 02:49:00,14.4,11.7,30.56,NW,315,1.0,3.0,89,0.00,,,0.00,meteohub,2013-01-27 07:49:00,
2013-01-27 02:54:00,14.5,11.8,30.56,NW,315,1.0,2.0,89,0.00,,,0.00,meteohub,2013-01-27 07:54:00,
2013-01-27 02:59:00,14.5,11.8,30.56,NW,315,1.0,2.0,89,0.00,,,0.00,meteohub,2013-01-27 07:59:00,
2013-01-27 03:04:00,14.5,11.8,30.56,NW,315,1.0,3.0,89,0.00,,,0.00,meteohub,2013-01-27 08:04:00,
2013-01-27 03:09:00,14.4,11.7,30.56,NW,315,1.0,3.0,89,0.00,,,0.00,meteohub,2013-01-27 08:09:00,
2013-01-27 03:14:00,14.4,12.0,30.56,NW,315,1.0,2.0,90,0.00,,,0.00,meteohub,2013-01-27 08:14:00,
2013-01-27 03:19:00,14.5,12.2,30.55,NW,315,0.0,2.0,90,0.00,,,0.00,meteohub,2013-01-27 08:19:00,
2013-01-27 03:24:00,14.4,11.7,30.55,NW,315,0.0,2.0,89,0.00,,,0.00,meteohub,2013-01-27 08:24:00,
2013-01-27 03:29:00,14.4,11.7,30.55,NW,315,0.0,2.0,89,0.00,,,0.00,meteohub,2013-01-27 08:29:00,
2013-01-27 03:34:00,14.2,11.5,30.55,NW,315,0.0,2.0,89,0.00,,,0.00,meteohub,2013-01-27 08:34:00,
2013-01-27 03:39:00,13.5,10.6,30.54,NW,315,0.0,1.0,88,0.00,,,0.00,meteohub,2013-01-27 08:39:00,
2013-01-27 03:45:00,13.1,10.2,30.54,NW,315,0.0,1.0,88,0.00,,,0.00,meteohub,2013-01-27 08:45:00,
2013-01-27 03:50:00,12.7,9.9,30.54,NW,315,0.0,2.0,88,0.00,,,0.00,meteohub,2013-01-27 08:50:00,
2013-01-27 03:55:00,12.9,10.2,30.54,NW,315,0.0,2.0,89,0.00,,,0.00,meteohub,2013-01-27 08:55:00,
2013-01-27 04:00:00,12.7,10.0,30.54,NW,315,1.0,2.0,89,0.00,,,0.00,meteohub,2013-01-27 09:00:00,
2013-01-27 04:05:00,12.2,9.3,30.54,NW,315,1.0,2.0,88,0.00,,,0.00,meteohub,2013-01-27 09:05:00,
2013-01-27 04:10:00,12.6,10.2,30.54,NW,315,1.0,2.0,90,0.00,,,0.00,meteohub,2013-01-27 09:10:00,
2013-01-27 04:15:00,12.7,10.6,30.54,NW,315,1.0,2.0,91,0.00,,,0.00,meteohub,2013-01-27 09:15:00,
2013-01-27 04:20:00,12.6,9.9,30.54,NW,315,0.0,2.0,89,0.00,,,0.00,meteohub,2013-01-27 09:20:00,
2013-01-27 04:25:00,12.7,10.4,30.54,NW,315,0.0,2.0,90,0.00,,,0.00,meteohub,2013-01-27 09:25:00,
2013-01-27 04:30:00,12.4,9.5,30.53,NW,315,0.0,2.0,88,0.00,,,0.00,meteohub,2013-01-27 09:30:00,
2013-01-27 04:35:00,11.7,8.8,30.53,NW,315,2.0,2.0,88,0.00,,,0.00,meteohub,2013-01-27 09:35:00,
2013-01-27 04:41:00,10.8,7.9,30.54,NW,321,2.0,3.0,88,0.00,,,0.00,meteohub,2013-01-27 09:41:00,
2013-01-27 04:46:00,10.0,7.0,30.54,NW,322,1.0,3.0,87,0.00,,,0.00,meteohub,2013-01-27 09:46:00,
2013-01-27 04:51:00,9.7,7.2,30.55,NW,322,2.0,3.0,89,0.00,,,0.00,meteohub,2013-01-27 09:51:00,
2013-01-27 04:56:00,9.9,7.5,30.56,NW,322,1.0,3.0,90,0.00,,,0.00,meteohub,2013-01-27 09:56:00,
2013-01-27 05:01:00,9.7,7.2,30.57,NW,323,1.0,3.0,89,0.00,,,0.00,meteohub,2013-01-27 10:01:00,
2013-01-27 05:06:00,10.0,7.7,30.57,NW,323,0.0,3.0,90,0.00,,,0.00,meteohub,2013-01-27 10:06:00,
2013-01-27 05:11:00,10.6,8.4,30.57,NW,323,0.0,3.0,91,0.00,,,0.00,meteohub,2013-01-27 10:11:00,
2013-01-27 05:16:00,10.9,8.8,30.57,NW,323,1.0,2.0,91,0.00,,,0.00,meteohub,2013-01-27 10:16:00,
2013-01-27 05:21:00,10.6,8.1,30.57,NW,323,1.0,2.0,89,0.00,,,0.00,meteohub,2013-01-27 10:21:00,
2013-01-27 05:26:00,10.2,7.7,30.56,NW,323,0.0,2.0,89,0.00,,,0.00,meteohub,2013-01-27 10:26:00,
2013-01-27 05:31:00,9.9,7.3,30.56,NW,323,2.0,2.0,89,0.00,,,0.00,meteohub,2013-01-27 10:31:00,
2013-01-27 05:37:00,9.5,7.0,30.56,NW,323,1.0,3.0,89,0.00,,,0.00,meteohub,2013-01-27 10:37:00,
2013-01-27 05:42:00,9.3,6.8,30.56,NW,323,1.0,3.0,89,0.00,,,0.00,meteohub,2013-01-27 10:42:00,
2013-01-27 05:47:00,9.9,7.5,30.56,NW,323,1.0,3.0,90,0.00,,,0.00,meteohub,2013-01-27 10:47:00,
2013-01-27 05:52:00,10.0,7.9,30.56,NW,323,0.0,2.0,91,0.00,,,0.00,meteohub,2013-01-27 10:52:00,
2013-01-27 05:57:00,10.0,7.7,30.56,NW,323,0.0,2.0,90,0.00,,,0.00,meteohub,2013-01-27 10:57:00,
2013-01-27 06:02:00,10.0,7.7,30.57,NW,323,1.0,2.0,90,0.00,,,0.00,meteohub,2013-01-27 11:02:00,
2013-01-27 06:07:00,9.5,7.0,30.57,NW,323,2.0,2.0,89,0.00,,,0.00,meteohub,2013-01-27 11:07:00,
2013-01-27 06:12:00,9.1,6.6,30.57,NW,323,1.0,2.0,89,0.00,,,0.00,meteohub,2013-01-27 11:12:00,
2013-01-27 06:17:00,9.0,6.4,30.58,NW,323,2.0,3.0,89,0.00,,,0.00,meteohub,2013-01-27 11:17:00,
2013-01-27 06:22:00,9.0,6.6,30.58,NW,323,2.0,3.0,90,0.00,,,0.00,meteohub,2013-01-27 11:22:00,
2013-01-27 06:27:00,8.8,6.3,30.58,NW,324,2.0,3.0,89,0.00,,,0.00,meteohub,2013-01-27 11:27:00,
2013-01-27 06:32:00,8.4,5.9,30.58,NW,324,2.0,3.0,89,0.00,,,0.00,meteohub,2013-01-27 11:32:00,
2013-01-27 06:37:00,9.0,6.8,30.58,NW,324,2.0,3.0,91,0.00,,,0.00,meteohub,2013-01-27 11:37:00,
2013-01-27 06:42:00,8.8,6.3,30.57,NW,324,0.0,3.0,89,0.00,,,0.00,meteohub,2013-01-27 11:42:00,
2013-01-27 06:47:00,8.4,5.9,30.57,NW,324,1.0,2.0,89,0.00,,,0.00,meteohub,2013-01-27 11:47:00,
2013-01-27 06:52:00,8.8,6.4,30.58,NW,324,1.0,2.0,90,0.00,,,0.00,meteohub,2013-01-27 11:52:00,
2013-01-27 06:57:00,8.6,6.1,30.57,NW,324,1.0,2.0,89,0.00,,,0.00,meteohub,2013-01-27 11:57:00,
2013-01-27 07:02:00,8.2,5.7,30.58,NW,324,1.0,2.0,89,0.00,,,0.00,meteohub,2013-01-27 12:02:00,
2013-01-27 07:07:00,8.4,6.1,30.58,NW,324,1.0,2.0,90,0.00,,,0.00,meteohub,2013-01-27 12:07:00,
2013-01-27 07:12:00,8.2,5.7,30.58,NW,324,2.0,2.0,89,0.00,,,0.00,meteohub,2013-01-27 12:12:00,
2013-01-27 07:17:00,8.1,5.5,30.59,NW,324,1.0,3.0,89,0.00,,,0.00,meteohub,2013-01-27 12:17:00,
2013-01-27 07:22:00,8.1,5.7,30.58,NW,325,2.0,3.0,90,0.00,,,0.00,meteohub,2013-01-27 12:22:00,
2013-01-27 07:27:00,7.9,5.4,30.58,NW,325,0.0,3.0,89,0.00,,,0.00,meteohub,2013-01-27 12:27:00,
2013-01-27 07:32:00,8.4,6.3,30.58,NW,325,0.0,3.0,91,0.00,,,0.00,meteohub,2013-01-27 12:32:00,
2013-01-27 07:37:00,9.7,8.1,30.58,NW,325,0.0,3.0,93,0.00,,,0.00,meteohub,2013-01-27 12:37:00,
2013-01-27 07:42:00,10.0,8.2,30.58,NW,325,0.0,1.0,92,0.00,,,0.00,meteohub,2013-01-27 12:42:00,
2013-01-27 07:47:00,10.2,8.4,30.58,NW,325,0.0,1.0,92,0.00,,,0.00,meteohub,2013-01-27 12:47:00,
2013-01-27 07:52:00,10.2,8.1,30.58,NW,325,0.0,1.0,91,0.00,,,0.00,meteohub,2013-01-27 12:52:00,
2013-01-27 07:57:00,9.7,7.2,30.58,NW,325,1.0,2.0,89,0.00,,,0.00,meteohub,2013-01-27 12:57:00,
2013-01-27 08:02:00,9.7,7.3,30.58,NW,325,1.0,2.0,90,0.00,,,0.00,meteohub,2013-01-27 13:02:00,
2013-01-27 08:07:00,10.0,7.9,30.58,NW,325,0.0,2.0,91,0.00,,,0.00,meteohub,2013-01-27 13:07:00,
2013-01-27 08:12:00,10.8,9.0,30.58,NW,325,0.0,2.0,92,0.00,,,0.00,meteohub,2013-01-27 13:12:00,
2013-01-27 08:17:00,11.7,9.9,30.59,NW,325,0.0,2.0,92,0.00,,,0.00,meteohub,2013-01-27 13:17:00,
2013-01-27 08:22:00,12.0,9.9,30.59,NW,325,0.0,1.0,91,0.00,,,0.00,meteohub,2013-01-27 13:22:00,
2013-01-27 08:27:00,12.4,10.0,30.59,NW,325,0.0,1.0,90,0.00,,,0.00,meteohub,2013-01-27 13:27:00,
2013-01-27 08:32:00,12.4,10.0,30.60,NW,325,0.0,1.0,90,0.00,,,0.00,meteohub,2013-01-27 13:32:00,
2013-01-27 08:37:00,12.7,10.4,30.60,NW,325,0.0,1.0,90,0.00,,,0.00,meteohub,2013-01-27 13:37:00,
2013-01-27 08:42:00,13.6,11.5,30.60,NW,325,0.0,1.0,91,0.00,,,0.00,meteohub,2013-01-27 13:42:00,
2013-01-27 08:47:00,14.0,11.7,30.59,NW,325,0.0,1.0,90,0.00,,,0.00,meteohub,2013-01-27 13:47:00,
2013-01-27 08:52:00,14.0,11.3,30.60,NW,325,0.0,1.0,89,0.00,,,0.00,meteohub,2013-01-27 13:52:00,
2013-01-27 08:57:00,14.5,11.8,30.60,NW,325,0.0,1.0,89,0.00,,,0.00,meteohub,2013-01-27 13:57:00,
2013-01-27 09:02:00,15.1,12.4,30.60,NW,325,0.0,1.0,89,0.00,,,0.00,meteohub,2013-01-27 14:02:00,
2013-01-27 09:07:00,16.0,13.6,30.60,NW,325,0.0,1.0,90,0.00,,,0.00,meteohub,2013-01-27 14:07:00,
2013-01-27 09:12:00,16.9,14.5,30.60,SW,235,0.0,2.0,90,0.00,,,0.00,meteohub,2013-01-27 14:12:00,
2013-01-27 09:17:00,17.8,15.1,30.60,SW,235,1.0,3.0,89,0.00,,,0.00,meteohub,2013-01-27 14:17:00,
2013-01-27 09:22:00,18.3,15.4,30.60,WSW,253,3.0,3.0,88,0.00,,,0.00,meteohub,2013-01-27 14:22:00,
2013-01-27 09:27:00,18.7,15.4,30.60,SW,234,1.0,4.0,87,0.00,,,0.00,meteohub,2013-01-27 14:27:00,
2013-01-27 09:32:00,19.0,15.6,30.60,South,171,1.0,4.0,86,0.00,,,0.00,meteohub,2013-01-27 14:32:00,
2013-01-27 09:37:00,19.0,15.3,30.60,SSW,197,2.0,4.0,85,0.00,,,0.00,meteohub,2013-01-27 14:37:00,
2013-01-27 09:42:00,19.0,15.3,30.60,SW,217,4.0,6.0,85,0.00,,,0.00,meteohub,2013-01-27 14:42:00,
2013-01-27 09:47:00,19.0,15.3,30.60,WSW,256,4.0,6.0,85,0.00,,,0.00,meteohub,2013-01-27 14:47:00,
2013-01-27 09:52:00,19.2,15.3,30.60,West,261,0.0,6.0,84,0.00,,,0.00,meteohub,2013-01-27 14:52:00,
2013-01-27 09:57:00,19.8,15.8,30.60,SSW,208,4.0,6.0,84,0.00,,,0.00,meteohub,2013-01-27 14:57:00,
2013-01-27 10:02:00,19.8,15.4,30.60,South,184,3.0,7.0,83,0.00,,,0.00,meteohub,2013-01-27 15:02:00,
2013-01-27 10:07:00,19.8,15.4,30.60,SSW,213,5.0,7.0,83,0.00,,,0.00,meteohub,2013-01-27 15:07:00,
2013-01-27 10:12:00,19.8,15.1,30.60,SW,230,2.0,7.0,82,0.00,,,0.00,meteohub,2013-01-27 15:12:00,
2013-01-27 10:17:00,19.9,15.6,30.60,West,266,6.0,8.0,83,0.00,,,0.00,meteohub,2013-01-27 15:17:00,
2013-01-27 10:22:00,20.1,15.4,30.60,SW,221,4.0,8.0,82,0.00,,,0.00,meteohub,2013-01-27 15:22:00,
2013-01-27 10:27:00,20.3,16.0,30.61,SW,223,2.0,8.0,83,0.00,,,0.00,meteohub,2013-01-27 15:27:00,
2013-01-27 10:32:00,20.7,16.0,30.61,SSW,198,3.0,8.0,82,0.00,,,0.00,meteohub,2013-01-27 15:32:00,
2013-01-27 10:37:00,20.8,16.2,30.61,SW,230,4.0,6.0,82,0.00,,,0.00,meteohub,2013-01-27 15:37:00,
2013-01-27 10:42:00,20.8,16.0,30.61,SSW,213,1.0,7.0,81,0.00,,,0.00,meteohub,2013-01-27 15:42:00,
2013-01-27 10:47:00,20.8,16.2,30.61,SW,233,5.0,8.0,82,0.00,,,0.00,meteohub,2013-01-27 15:47:00,
2013-01-27 10:52:00,21.2,16.5,30.61,SW,230,1.0,8.0,82,0.00,,,0.00,meteohub,2013-01-27 15:52:00,
2013-01-27 10:57:00,21.4,16.7,30.61,SW,236,3.0,7.0,82,0.00,,,0.00,meteohub,2013-01-27 15:57:00,
2013-01-27 11:02:00,21.6,16.7,30.60,SSW,192,6.0,7.0,81,0.00,,,0.00,meteohub,2013-01-27 16:02:00,
2013-01-27 11:07:00,21.9,17.1,30.60,SW,226,2.0,14.0,81,0.00,,,0.00,meteohub,2013-01-27 16:07:00,
2013-01-27 11:12:00,22.1,16.9,30.60,SW,221,4.0,14.0,80,0.00,,,0.00,meteohub,2013-01-27 16:12:00,
2013-01-27 11:17:00,22.3,17.1,30.60,WSW,249,2.0,14.0,80,0.00,,,0.00,meteohub,2013-01-27 16:17:00,
2013-01-27 11:22:00,22.5,16.7,30.59,South,189,6.0,9.0,78,0.00,,,0.00,meteohub,2013-01-27 16:22:00,
2013-01-27 11:27:00,22.6,16.9,30.59,WSW,237,2.0,12.0,78,0.00,,,0.00,meteohub,2013-01-27 16:27:00,
2013-01-27 11:32:00,23.0,17.4,30.58,SSW,193,1.0,12.0,79,0.00,,,0.00,meteohub,2013-01-27 16:32:00,
2013-01-27 11:37:00,23.4,16.9,30.58,SSE,166,4.0,12.0,76,0.00,,,0.00,meteohub,2013-01-27 16:37:00,
2013-01-27 11:42:00,23.2,16.7,30.59,SW,233,5.0,12.0,76,0.00,,,0.00,meteohub,2013-01-27 16:42:00,
2013-01-27 11:47:00,23.2,16.7,30.59,South,179,4.0,12.0,76,0.00,,,0.00,meteohub,2013-01-27 16:47:00,
2013-01-27 11:52:00,23.2,16.7,30.58,SSW,206,9.0,12.0,76,0.00,,,0.00,meteohub,2013-01-27 16:52:00,
2013-01-27 11:57:00,23.2,17.1,30.58,SSW,211,2.0,13.0,77,0.00,,,0.00,meteohub,2013-01-27 16:57:00,
2013-01-27 12:02:00,23.5,17.4,30.58,SW,228,3.0,13.0,77,0.01,,,0.01,meteohub,2013-01-27 17:02:00,
2013-01-27 12:07:00,24.1,18.0,30.58,SSW,209,3.0,13.0,77,0.01,,,0.01,meteohub,2013-01-27 17:07:00,
2013-01-27 12:12:00,23.9,17.1,30.57,WSW,249,5.0,10.0,75,0.01,,,0.01,meteohub,2013-01-27 17:12:00,
2013-01-27 12:17:00,24.1,17.6,30.57,SSW,213,3.0,12.0,76,0.01,,,0.01,meteohub,2013-01-27 17:17:00,
2013-01-27 12:22:00,24.6,17.8,30.57,SSW,196,7.0,12.0,75,0.01,,,0.01,meteohub,2013-01-27 17:22:00,
2013-01-27 12:27:00,24.6,17.8,30.57,SSW,207,2.0,10.0,75,0.01,,,0.01,meteohub,2013-01-27 17:27:00,
2013-01-27 12:32:00,24.8,18.0,30.57,SW,234,1.0,10.0,75,0.01,,,0.01,meteohub,2013-01-27 17:32:00,
2013-01-27 12:37:00,25.2,18.0,30.57,West,279,1.0,10.0,74,0.01,,,0.01,meteohub,2013-01-27 17:37:00,
2013-01-27 12:42:00,25.0,18.0,30.58,SSW,213,5.0,9.0,74,0.01,,,0.01,meteohub,2013-01-27 17:42:00,
2013-01-27 12:47:00,24.6,17.2,30.57,SSW,198,2.0,12.0,73,0.01,,,0.01,meteohub,2013-01-27 17:47:00,
2013-01-27 12:52:00,24.6,17.8,30.58,West,277,1.0,12.0,75,0.01,,,0.01,meteohub,2013-01-27 17:52:00,
2013-01-27 12:57:00,24.6,17.6,30.57,SW,217,2.0,8.0,74,0.01,,,0.01,meteohub,2013-01-27 17:57:00,
2013-01-27 13:02:00,24.6,17.6,30.56,WSW,258,2.0,8.0,74,0.00,,,0.01,meteohub,2013-01-27 18:02:00,
2013-01-27 13:07:00,25.0,18.0,30.55,SW,217,3.0,8.0,74,0.00,,,0.01,meteohub,2013-01-27 18:07:00,
2013-01-27 13:12:00,25.2,18.0,30.56,SSW,200,4.0,7.0,74,0.00,,,0.01,meteohub,2013-01-27 18:12:00,
2013-01-27 13:17:00,25.5,18.3,30.55,SW,229,4.0,7.0,74,0.00,,,0.01,meteohub,2013-01-27 18:17:00,
2013-01-27 13:22:00,25.3,17.6,30.56,WSW,240,4.0,7.0,72,0.00,,,0.01,meteohub,2013-01-27 18:22:00,
2013-01-27 13:27:00,25.3,17.2,30.56,SW,234,4.0,8.0,71,0.00,,,0.01,meteohub,2013-01-27 18:27:00,
2013-01-27 13:32:00,25.5,18.1,30.56,WSW,238,4.0,8.0,73,0.00,,,0.01,meteohub,2013-01-27 18:32:00,
2013-01-27 13:37:00,25.7,18.0,30.56,SSW,205,1.0,8.0,72,0.00,,,0.01,meteohub,2013-01-27 18:37:00,
2013-01-27 13:42:00,26.1,18.3,30.56,SW,215,2.0,8.0,72,0.00,,,0.01,meteohub,2013-01-27 18:42:00,
2013-01-27 13:47:00,26.4,18.7,30.55,SW,230,4.0,8.0,72,0.00,,,0.01,meteohub,2013-01-27 18:47:00,
2013-01-27 13:52:00,26.4,18.3,30.54,SSW,211,1.0,5.0,71,0.00,,,0.01,meteohub,2013-01-27 18:52:00,
2013-01-27 13:57:00,26.2,17.8,30.54,WSW,238,2.0,8.0,70,0.01,,,0.02,meteohub,2013-01-27 18:57:00,
2013-01-27 14:02:00,26.2,18.1,30.53,SW,214,1.0,8.0,71,0.01,,,0.02,meteohub,2013-01-27 19:02:00,
2013-01-27 14:07:00,26.2,17.8,30.53,SSE,167,8.0,8.0,70,0.01,,,0.02,meteohub,2013-01-27 19:07:00,
2013-01-27 14:12:00,26.1,18.0,30.53,SW,217,4.0,10.0,71,0.01,,,0.02,meteohub,2013-01-27 19:12:00,
2013-01-27 14:17:00,26.1,18.0,30.52,SSW,201,7.0,10.0,71,0.01,,,0.02,meteohub,2013-01-27 19:17:00,
2013-01-27 14:22:00,25.9,17.8,30.52,SSW,192,6.0,9.0,71,0.01,,,0.02,meteohub,2013-01-27 19:22:00,
2013-01-27 14:27:00,25.9,17.8,30.52,South,173,2.0,8.0,71,0.01,,,0.02,meteohub,2013-01-27 19:27:00,
2013-01-27 14:32:00,26.1,17.6,30.52,South,186,4.0,10.0,70,0.01,,,0.02,meteohub,2013-01-27 19:32:00,
2013-01-27 14:37:00,25.9,17.4,30.52,SE,140,4.0,12.0,70,0.01,,,0.02,meteohub,2013-01-27 19:37:00,
2013-01-27 14:42:00,25.9,17.4,30.52,SSW,198,3.0,12.0,70,0.01,,,0.02,meteohub,2013-01-27 19:42:00,
2013-01-27 14:47:00,26.1,17.6,30.51,South,189,8.0,12.0,70,0.01,,,0.02,meteohub,2013-01-27 19:47:00,
2013-01-27 14:52:00,26.2,17.8,30.51,SW,220,3.0,9.0,70,0.00,,,0.02,meteohub,2013-01-27 19:52:00,
2013-01-27 14:57:00,26.6,17.8,30.51,SW,219,4.0,11.0,69,0.00,,,0.02,meteohub,2013-01-27 19:57:00,
2013-01-27 15:02:00,26.6,18.1,30.51,South,190,4.0,11.0,70,0.00,,,0.02,meteohub,2013-01-27 20:02:00,
2013-01-27 15:07:00,26.6,18.1,30.51,SSW,201,3.0,10.0,70,0.00,,,0.02,meteohub,2013-01-27 20:07:00,
2013-01-27 15:12:00,26.4,18.0,30.51,SSW,205,5.0,9.0,70,0.01,,,0.03,meteohub,2013-01-27 20:12:00,
2013-01-27 15:17:00,26.4,17.6,30.51,SSW,211,4.0,8.0,69,0.01,,,0.03,meteohub,2013-01-27 20:17:00,
2013-01-27 15:22:00,26.4,17.6,30.51,SW,231,4.0,7.0,69,0.01,,,0.03,meteohub,2013-01-27 20:22:00,
2013-01-27 15:27:00,26.2,17.4,30.51,South,175,3.0,8.0,69,0.01,,,0.03,meteohub,2013-01-27 20:27:00,
2013-01-27 15:32:00,26.2,17.8,30.51,SSW,209,5.0,8.0,70,0.01,,,0.03,meteohub,2013-01-27 20:32:00,
2013-01-27 15:37:00,26.2,18.1,30.51,SSW,207,2.0,8.0,71,0.01,,,0.03,meteohub,2013-01-27 20:37:00,
2013-01-27 15:42:00,26.2,18.1,30.51,SSW,202,4.0,6.0,71,0.01,,,0.03,meteohub,2013-01-27 20:42:00,
2013-01-27 15:48:00,26.2,17.8,30.51,SSW,196,4.0,6.0,70,0.01,,,0.03,meteohub,2013-01-27 20:48:00,
2013-01-27 15:53:00,26.2,17.8,30.50,SSW,202,6.0,7.0,70,0.01,,,0.03,meteohub,2013-01-27 20:53:00,
2013-01-27 15:58:00,26.2,17.8,30.50,South,186,3.0,8.0,70,0.01,,,0.03,meteohub,2013-01-27 20:58:00,
2013-01-27 16:03:00,26.2,17.8,30.50,South,177,5.0,8.0,70,0.01,,,0.03,meteohub,2013-01-27 21:03:00,
2013-01-27 16:08:00,26.2,18.1,30.50,SSE,168,4.0,8.0,71,0.00,,,0.03,meteohub,2013-01-27 21:08:00,
2013-01-27 16:13:00,26.2,17.8,30.49,SW,231,1.0,8.0,70,0.00,,,0.03,meteohub,2013-01-27 21:13:00,
2013-01-27 16:18:00,26.2,17.8,30.49,South,175,3.0,8.0,70,0.00,,,0.03,meteohub,2013-01-27 21:18:00,
2013-01-27 16:23:00,26.2,17.8,30.49,South,170,3.0,7.0,70,0.00,,,0.03,meteohub,2013-01-27 21:23:00,
2013-01-27 16:28:00,26.2,17.4,30.49,South,182,7.0,8.0,69,0.00,,,0.03,meteohub,2013-01-27 21:28:00,
2013-01-27 16:33:00,26.1,17.6,30.48,South,186,2.0,11.0,70,0.00,,,0.03,meteohub,2013-01-27 21:33:00,
2013-01-27 16:39:00,26.1,17.6,30.49,SSW,192,3.0,11.0,70,0.00,,,0.03,meteohub,2013-01-27 21:39:00,
2013-01-27 16:44:00,26.1,17.6,30.48,SSW,213,8.0,11.0,70,0.00,,,0.03,meteohub,2013-01-27 21:44:00,
2013-01-27 16:49:00,26.1,17.6,30.48,SSW,201,3.0,9.0,70,0.00,,,0.03,meteohub,2013-01-27 21:49:00,
2013-01-27 16:54:00,26.1,17.6,30.47,SSE,165,4.0,9.0,70,0.00,,,0.03,meteohub,2013-01-27 21:54:00,
2013-01-27 16:59:00,25.9,17.4,30.47,SSW,196,3.0,10.0,70,0.00,,,0.03,meteohub,2013-01-27 21:59:00,
2013-01-27 17:04:00,25.9,17.8,30.47,SSE,147,4.0,10.0,71,0.00,,,0.03,meteohub,2013-01-27 22:04:00,
2013-01-27 17:09:00,25.9,17.8,30.47,SSE,162,4.0,10.0,71,0.00,,,0.03,meteohub,2013-01-27 22:09:00,
2013-01-27 17:14:00,25.9,17.8,30.47,South,173,3.0,10.0,71,0.00,,,0.03,meteohub,2013-01-27 22:14:00,
2013-01-27 17:20:00,25.9,17.8,30.47,SW,234,4.0,11.0,71,0.00,,,0.03,meteohub,2013-01-27 22:20:00,
2013-01-27 17:25:00,25.7,17.6,30.46,South,177,7.0,11.0,71,0.00,,,0.03,meteohub,2013-01-27 22:25:00,
2013-01-27 17:30:00,25.7,17.6,30.46,SSE,159,5.0,9.0,71,0.00,,,0.03,meteohub,2013-01-27 22:30:00,
2013-01-27 17:35:00,25.5,17.8,30.46,SSE,167,3.0,11.0,72,0.00,,,0.03,meteohub,2013-01-27 22:35:00,
2013-01-27 17:40:00,25.5,17.4,30.47,South,186,6.0,11.0,71,0.00,,,0.03,meteohub,2013-01-27 22:40:00,
2013-01-27 17:45:00,25.3,17.2,30.47,South,179,3.0,10.0,71,0.00,,,0.03,meteohub,2013-01-27 22:45:00,
2013-01-27 17:50:00,25.2,17.4,30.46,SW,215,4.0,9.0,72,0.00,,,0.03,meteohub,2013-01-27 22:50:00,
2013-01-27 17:56:00,25.3,17.6,30.46,South,189,4.0,8.0,72,0.00,,,0.03,meteohub,2013-01-27 22:56:00,
2013-01-27 18:01:00,25.3,17.6,30.46,SSW,202,4.0,9.0,72,0.00,,,0.03,meteohub,2013-01-27 23:01:00,
2013-01-27 18:06:00,25.3,17.2,30.46,SSE,150,6.0,9.0,71,0.00,,,0.03,meteohub,2013-01-27 23:06:00,
2013-01-27 18:11:00,25.3,17.2,30.46,South,178,6.0,9.0,71,0.00,,,0.03,meteohub,2013-01-27 23:11:00,
2013-01-27 18:16:00,25.3,17.6,30.46,SSW,204,4.0,9.0,72,0.00,,,0.03,meteohub,2013-01-27 23:16:00,
2013-01-27 18:21:00,25.5,17.8,30.46,South,189,8.0,11.0,72,0.00,,,0.03,meteohub,2013-01-27 23:21:00,
2013-01-27 18:26:00,25.3,17.6,30.46,South,175,3.0,11.0,72,0.00,,,0.03,meteohub,2013-01-27 23:26:00,
2013-01-27 18:32:00,25.3,17.6,30.46,SSW,202,5.0,11.0,72,0.00,,,0.03,meteohub,2013-01-27 23:32:00,
2013-01-27 18:37:00,25.3,17.6,30.47,SSW,210,5.0,10.0,72,0.00,,,0.03,meteohub,2013-01-27 23:37:00,
2013-01-27 18:42:00,25.3,17.6,30.46,SW,217,6.0,10.0,72,0.00,,,0.03,meteohub,2013-01-27 23:42:00,
2013-01-27 18:47:00,25.3,17.6,30.47,SSW,207,2.0,10.0,72,0.00,,,0.03,meteohub,2013-01-27 23:47:00,
2013-01-27 18:52:00,25.5,17.8,30.47,SSW,197,6.0,9.0,72,0.00,,,0.03,meteohub,2013-01-27 23:52:00,
2013-01-27 18:57:00,25.3,17.6,30.46,WSW,243,4.0,9.0,72,0.00,,,0.03,meteohub,2013-01-27 23:57:00,
2013-01-27 19:02:00,25.5,17.8,30.46,SSW,204,5.0,9.0,72,0.00,,,0.03,meteohub,2013-01-28 00:02:00,
2013-01-27 19:07:00,25.5,17.8,30.46,SSW,194,1.0,11.0,72,0.00,,,0.03,meteohub,2013-01-28 00:07:00,
2013-01-27 19:12:00,25.5,18.1,30.47,SW,221,4.0,11.0,73,0.00,,,0.03,meteohub,2013-01-28 00:12:00,
2013-01-27 19:17:00,25.5,18.1,30.47,South,182,4.0,11.0,73,0.00,,,0.03,meteohub,2013-01-28 00:17:00,
2013-01-27 19:22:00,25.5,18.1,30.46,SSW,195,4.0,10.0,73,0.00,,,0.03,meteohub,2013-01-28 00:22:00,
2013-01-27 19:27:00,25.5,18.1,30.46,WNW,284,4.0,9.0,73,0.00,,,0.03,meteohub,2013-01-28 00:27:00,
2013-01-27 19:32:00,25.5,18.1,30.46,South,184,6.0,9.0,73,0.00,,,0.03,meteohub,2013-01-28 00:32:00,
2013-01-27 19:37:00,25.5,18.1,30.46,SW,221,6.0,10.0,73,0.00,,,0.03,meteohub,2013-01-28 00:37:00,
2013-01-27 19:42:00,25.7,18.3,30.46,South,187,3.0,10.0,73,0.00,,,0.03,meteohub,2013-01-28 00:42:00,
2013-01-27 19:47:00,25.7,18.3,30.46,South,191,2.0,10.0,73,0.00,,,0.03,meteohub,2013-01-28 00:47:00,
2013-01-27 19:52:00,25.7,18.3,30.46,SSW,211,5.0,9.0,73,0.00,,,0.03,meteohub,2013-01-28 00:52:00,
2013-01-27 19:57:00,25.9,18.5,30.46,West,276,6.0,7.0,73,0.00,,,0.03,meteohub,2013-01-28 00:57:00,
2013-01-27 20:02:00,25.9,18.5,30.46,West,261,2.0,10.0,73,0.00,,,0.03,meteohub,2013-01-28 01:02:00,
2013-01-27 20:07:00,25.9,18.5,30.45,South,187,3.0,10.0,73,0.00,,,0.03,meteohub,2013-01-28 01:07:00,
2013-01-27 20:12:00,25.9,18.5,30.45,SW,219,5.0,10.0,73,0.00,,,0.03,meteohub,2013-01-28 01:12:00,
2013-01-27 20:17:00,26.1,18.7,30.45,South,190,5.0,9.0,73,0.00,,,0.03,meteohub,2013-01-28 01:17:00,
2013-01-27 20:22:00,26.1,18.9,30.45,SW,226,6.0,9.0,74,0.00,,,0.03,meteohub,2013-01-28 01:22:00,
2013-01-27 20:27:00,26.1,18.9,30.45,SSW,202,5.0,9.0,74,0.00,,,0.03,meteohub,2013-01-28 01:27:00,
2013-01-27 20:32:00,26.1,18.9,30.44,SSW,198,4.0,9.0,74,0.00,,,0.03,meteohub,2013-01-28 01:32:00,
2013-01-27 20:37:00,26.1,18.9,30.44,SSW,209,7.0,9.0,74,0.00,,,0.03,meteohub,2013-01-28 01:37:00,
2013-01-27 20:42:00,26.1,18.9,30.44,SSW,194,4.0,11.0,74,0.00,,,0.03,meteohub,2013-01-28 01:42:00,
2013-01-27 20:47:00,26.1,18.9,30.43,West,265,1.0,11.0,74,0.00,,,0.03,meteohub,2013-01-28 01:47:00,
2013-01-27 20:52:00,26.2,19.0,30.43,SW,221,5.0,10.0,74,0.00,,,0.03,meteohub,2013-01-28 01:52:00,
2013-01-27 20:58:00,26.2,19.4,30.43,South,190,8.0,10.0,75,0.00,,,0.03,meteohub,2013-01-28 01:58:00,
2013-01-27 21:03:00,26.2,19.0,30.43,SW,219,1.0,10.0,74,0.00,,,0.03,meteohub,2013-01-28 02:03:00,
2013-01-27 21:08:00,26.2,19.0,30.42,SW,236,9.0,10.0,74,0.00,,,0.03,meteohub,2013-01-28 02:08:00,
2013-01-27 21:13:00,26.4,19.2,30.42,SSW,198,4.0,10.0,74,0.00,,,0.03,meteohub,2013-01-28 02:13:00,
2013-01-27 21:19:00,26.4,19.6,30.43,WNW,293,4.0,10.0,75,0.00,,,0.03,meteohub,2013-01-28 02:19:00,
2013-01-27 21:24:00,26.4,19.6,30.42,SSW,201,4.0,10.0,75,0.00,,,0.03,meteohub,2013-01-28 02:24:00,
2013-01-27 21:29:00,26.4,19.6,30.42,WSW,244,6.0,9.0,75,0.00,,,0.03,meteohub,2013-01-28 02:29:00,
2013-01-27 21:34:00,26.4,19.9,30.43,SW,226,3.0,9.0,76,0.00,,,0.03,meteohub,2013-01-28 02:34:00,
2013-01-27 21:39:00,26.4,19.9,30.43,SW,214,5.0,9.0,76,0.00,,,0.03,meteohub,2013-01-28 02:39:00,
2013-01-27 21:45:00,26.4,19.9,30.43,SSW,204,3.0,9.0,76,0.00,,,0.03,meteohub,2013-01-28 02:45:00,
2013-01-27 21:50:00,26.4,20.1,30.43,WSW,239,5.0,9.0,77,0.00,,,0.03,meteohub,2013-01-28 02:50:00,
2013-01-27 21:55:00,26.4,20.5,30.44,SW,228,2.0,9.0,78,0.00,,,0.03,meteohub,2013-01-28 02:55:00,
2013-01-27 22:00:00,26.4,20.5,30.43,SW,223,1.0,8.0,78,0.00,,,0.03,meteohub,2013-01-28 03:00:00,
2013-01-27 22:05:00,26.4,20.5,30.43,SW,215,3.0,8.0,78,0.00,,,0.03,meteohub,2013-01-28 03:05:00,
2013-01-27 22:11:00,26.4,20.8,30.43,WNW,292,2.0,10.0,79,0.00,,,0.03,meteohub,2013-01-28 03:11:00,
2013-01-27 22:16:00,26.4,21.0,30.43,SW,217,0.0,10.0,80,0.00,,,0.03,meteohub,2013-01-28 03:16:00,
2013-01-27 22:21:00,26.2,20.8,30.43,WSW,240,3.0,10.0,80,0.00,,,0.03,meteohub,2013-01-28 03:21:00,
2013-01-27 22:26:00,26.2,21.2,30.43,West,281,3.0,6.0,81,0.00,,,0.03,meteohub,2013-01-28 03:26:00,
2013-01-27 22:31:00,26.1,21.4,30.42,SW,232,1.0,9.0,82,0.00,,,0.03,meteohub,2013-01-28 03:31:00,
2013-01-27 22:36:00,26.1,21.6,30.41,SW,223,1.0,9.0,83,0.00,,,0.03,meteohub,2013-01-28 03:36:00,
2013-01-27 22:41:00,25.9,21.7,30.40,SSW,204,5.0,9.0,84,0.00,,,0.03,meteohub,2013-01-28 03:41:00,
2013-01-27 22:46:00,25.3,21.7,30.40,SSW,209,3.0,9.0,86,0.00,,,0.03,meteohub,2013-01-28 03:46:00,
2013-01-27 22:51:00,25.3,22.1,30.40,South,188,5.0,12.0,87,0.00,,,0.03,meteohub,2013-01-28 03:51:00,
2013-01-27 22:57:00,25.3,22.3,30.40,SSW,212,4.0,12.0,88,0.00,,,0.03,meteohub,2013-01-28 03:57:00,
2013-01-27 23:02:00,25.2,22.5,30.40,WSW,240,2.0,10.0,89,0.00,,,0.03,meteohub,2013-01-28 04:02:00,
2013-01-27 23:07:00,25.0,22.5,30.39,South,190,3.0,10.0,90,0.00,,,0.03,meteohub,2013-01-28 04:07:00,
2013-01-27 23:12:00,25.0,22.5,30.38,SW,222,5.0,8.0,90,0.00,,,0.03,meteohub,2013-01-28 04:12:00,
2013-01-27 23:17:00,25.0,22.6,30.38,SW,229,7.0,8.0,91,0.00,,,0.03,meteohub,2013-01-28 04:17:00,
2013-01-27 23:22:00,25.0,22.6,30.37,SSE,159,5.0,7.0,91,0.00,,,0.03,meteohub,2013-01-28 04:22:00,
2013-01-27 23:27:00,25.0,22.6,30.36,SSE,154,4.0,8.0,91,0.00,,,0.03,meteohub,2013-01-28 04:27:00,
2013-01-27 23:32:00,25.0,23.0,30.36,South,180,7.0,8.0,92,0.00,,,0.03,meteohub,2013-01-28 04:32:00,
2013-01-27 23:37:00,25.0,23.0,30.36,SSW,210,6.0,9.0,92,0.00,,,0.03,meteohub,2013-01-28 04:37:00,
2013-01-27 23:42:00,25.2,23.2,30.36,South,190,5.0,9.0,92,0.00,,,0.03,meteohub,2013-01-28 04:42:00,
2013-01-27 23:47:00,25.2,23.2,30.36,SSW,192,7.0,10.0,92,0.00,,,0.03,meteohub,2013-01-28 04:47:00,
2013-01-27 23:52:00,25.2,23.2,30.36,SW,219,2.0,10.0,92,0.00,,,0.03,meteohub,2013-01-28 04:52:00,
2013-01-27 23:57:00,25.3,23.5,30.35,SSE,167,6.0,9.0,93,0.00,,,0.03,meteohub,2013-01-28 04:57:00,